sensor_id;sensor_type;location;lat;lon;timestamp;P1;durP1;ratioP1;P2;durP2;ratioP2
81320;SDS011;70785;52.570;5.638;2024-03-06T00:02:12;41.03;;;20.95;;
81320;SDS011;70785;52.570;5.638;2024-03-06T00:04:38;44.90;;;21.95;;
81320;SDS011;70785;52.570;5.638;2024-03-06T00:07:04;49.08;;;23.52;;
81320;SDS011;70785;52.570;5.638;2024-03-06T00:09:30;43.90;;;21.20;;
81320;SDS011;70785;52.570;5.638;2024-03-06T00:11:57;47.28;;;22.67;;
81320;SDS011;70785;52.570;5.638;2024-03-06T00:14:23;49.42;;;22.08;;
81320;SDS011;70785;52.570;5.638;2024-03-06T00:16:50;45.85;;;20.73;;
81320;SDS011;70785;52.570;5.638;2024-03-06T00:19:19;47.70;;;22.45;;
81320;SDS011;70785;52.570;5.638;2024-03-06T00:21:46;46.05;;;21.23;;
81320;SDS011;70785;52.570;5.638;2024-03-06T00:24:12;49.72;;;23.08;;
81320;SDS011;70785;52.570;5.638;2024-03-06T00:26:40;45.83;;;20.92;;
81320;SDS011;70785;52.570;5.638;2024-03-06T00:29:09;41.92;;;21.27;;
81320;SDS011;70785;52.570;5.638;2024-03-06T00:31:36;50.38;;;22.67;;
81320;SDS011;70785;52.570;5.638;2024-03-06T00:34:02;48.45;;;21.88;;
81320;SDS011;70785;52.570;5.638;2024-03-06T00:36:28;46.05;;;21.10;;
81320;SDS011;70785;52.570;5.638;2024-03-06T00:38:55;42.20;;;20.92;;
81320;SDS011;70785;52.570;5.638;2024-03-06T00:41:21;47.72;;;24.33;;
81320;SDS011;70785;52.570;5.638;2024-03-06T00:43:47;49.72;;;21.95;;
81320;SDS011;70785;52.570;5.638;2024-03-06T00:46:13;47.38;;;23.85;;
81320;SDS011;70785;52.570;5.638;2024-03-06T00:48:39;44.42;;;20.70;;
81320;SDS011;70785;52.570;5.638;2024-03-06T00:51:05;50.25;;;23.08;;
81320;SDS011;70785;52.570;5.638;2024-03-06T00:53:34;45.28;;;23.30;;
81320;SDS011;70785;52.570;5.638;2024-03-06T00:56:02;48.70;;;24.27;;
81320;SDS011;70785;52.570;5.638;2024-03-06T00:58:28;52.13;;;25.02;;
81320;SDS011;70785;52.570;5.638;2024-03-06T01:00:54;47.05;;;21.42;;
81320;SDS011;70785;52.570;5.638;2024-03-06T01:03:20;46.97;;;23.45;;
81320;SDS011;70785;52.570;5.638;2024-03-06T01:05:47;49.13;;;22.40;;
81320;SDS011;70785;52.570;5.638;2024-03-06T01:08:13;46.22;;;22.17;;
81320;SDS011;70785;52.570;5.638;2024-03-06T01:10:39;47.65;;;22.95;;
81320;SDS011;70785;52.570;5.638;2024-03-06T01:13:05;46.25;;;21.70;;
81320;SDS011;70785;52.570;5.638;2024-03-06T01:15:31;47.67;;;22.63;;
81320;SDS011;70785;52.570;5.638;2024-03-06T01:17:58;47.20;;;23.15;;
81320;SDS011;70785;52.570;5.638;2024-03-06T01:20:24;49.33;;;23.38;;
81320;SDS011;70785;52.570;5.638;2024-03-06T01:22:50;50.03;;;23.75;;
81320;SDS011;70785;52.570;5.638;2024-03-06T01:25:16;51.58;;;24.52;;
81320;SDS011;70785;52.570;5.638;2024-03-06T01:27:42;49.78;;;23.02;;
81320;SDS011;70785;52.570;5.638;2024-03-06T01:30:09;48.40;;;23.70;;
81320;SDS011;70785;52.570;5.638;2024-03-06T01:32:35;51.95;;;23.90;;
81320;SDS011;70785;52.570;5.638;2024-03-06T01:35:02;52.92;;;24.67;;
81320;SDS011;70785;52.570;5.638;2024-03-06T01:37:30;51.40;;;23.65;;
81320;SDS011;70785;52.570;5.638;2024-03-06T01:39:56;55.63;;;24.30;;
81320;SDS011;70785;52.570;5.638;2024-03-06T01:42:24;53.95;;;23.95;;
81320;SDS011;70785;52.570;5.638;2024-03-06T01:44:50;54.97;;;24.77;;
81320;SDS011;70785;52.570;5.638;2024-03-06T01:47:16;52.03;;;24.77;;
81320;SDS011;70785;52.570;5.638;2024-03-06T01:49:42;55.97;;;24.08;;
81320;SDS011;70785;52.570;5.638;2024-03-06T01:52:12;50.35;;;22.85;;
81320;SDS011;70785;52.570;5.638;2024-03-06T01:54:40;53.08;;;25.10;;
81320;SDS011;70785;52.570;5.638;2024-03-06T01:57:07;49.65;;;24.23;;
81320;SDS011;70785;52.570;5.638;2024-03-06T01:59:36;57.22;;;25.88;;
81320;SDS011;70785;52.570;5.638;2024-03-06T02:02:02;58.35;;;23.38;;
81320;SDS011;70785;52.570;5.638;2024-03-06T02:04:29;58.92;;;23.73;;
81320;SDS011;70785;52.570;5.638;2024-03-06T02:06:56;50.72;;;23.65;;
81320;SDS011;70785;52.570;5.638;2024-03-06T02:09:23;52.75;;;26.00;;
81320;SDS011;70785;52.570;5.638;2024-03-06T02:11:49;59.88;;;26.00;;
81320;SDS011;70785;52.570;5.638;2024-03-06T02:14:18;52.25;;;24.15;;
81320;SDS011;70785;52.570;5.638;2024-03-06T02:16:44;49.63;;;23.90;;
81320;SDS011;70785;52.570;5.638;2024-03-06T02:19:10;54.67;;;22.67;;
81320;SDS011;70785;52.570;5.638;2024-03-06T02:21:36;51.05;;;23.58;;
81320;SDS011;70785;52.570;5.638;2024-03-06T02:24:03;49.35;;;23.25;;
81320;SDS011;70785;52.570;5.638;2024-03-06T02:26:29;49.20;;;24.63;;
81320;SDS011;70785;52.570;5.638;2024-03-06T02:28:55;47.63;;;21.73;;
81320;SDS011;70785;52.570;5.638;2024-03-06T02:31:22;50.17;;;23.75;;
81320;SDS011;70785;52.570;5.638;2024-03-06T02:33:49;52.50;;;23.85;;
81320;SDS011;70785;52.570;5.638;2024-03-06T02:36:15;51.88;;;22.60;;
81320;SDS011;70785;52.570;5.638;2024-03-06T02:38:45;52.03;;;23.02;;
81320;SDS011;70785;52.570;5.638;2024-03-06T02:41:12;52.13;;;23.13;;
81320;SDS011;70785;52.570;5.638;2024-03-06T02:43:41;47.70;;;23.02;;
81320;SDS011;70785;52.570;5.638;2024-03-06T02:46:08;51.40;;;23.33;;
81320;SDS011;70785;52.570;5.638;2024-03-06T02:48:34;53.60;;;24.58;;
81320;SDS011;70785;52.570;5.638;2024-03-06T02:51:00;51.85;;;23.98;;
81320;SDS011;70785;52.570;5.638;2024-03-06T02:53:27;54.55;;;24.00;;
81320;SDS011;70785;52.570;5.638;2024-03-06T02:55:53;54.38;;;23.02;;
81320;SDS011;70785;52.570;5.638;2024-03-06T02:58:19;51.35;;;21.90;;
81320;SDS011;70785;52.570;5.638;2024-03-06T03:00:45;50.67;;;23.38;;
81320;SDS011;70785;52.570;5.638;2024-03-06T03:03:11;54.83;;;26.98;;
81320;SDS011;70785;52.570;5.638;2024-03-06T03:05:38;50.38;;;23.23;;
81320;SDS011;70785;52.570;5.638;2024-03-06T03:08:05;53.83;;;22.42;;
81320;SDS011;70785;52.570;5.638;2024-03-06T03:10:32;53.60;;;24.05;;
81320;SDS011;70785;52.570;5.638;2024-03-06T03:13:00;51.35;;;24.42;;
81320;SDS011;70785;52.570;5.638;2024-03-06T03:15:26;54.85;;;25.83;;
81320;SDS011;70785;52.570;5.638;2024-03-06T03:17:52;49.08;;;23.08;;
81320;SDS011;70785;52.570;5.638;2024-03-06T03:20:18;55.08;;;25.38;;
81320;SDS011;70785;52.570;5.638;2024-03-06T03:22:45;55.40;;;26.13;;
81320;SDS011;70785;52.570;5.638;2024-03-06T03:25:11;51.15;;;25.55;;
81320;SDS011;70785;52.570;5.638;2024-03-06T03:27:38;57.53;;;24.50;;
81320;SDS011;70785;52.570;5.638;2024-03-06T03:30:10;54.97;;;23.15;;
81320;SDS011;70785;52.570;5.638;2024-03-06T03:32:39;54.47;;;24.30;;
81320;SDS011;70785;52.570;5.638;2024-03-06T03:35:05;54.42;;;24.48;;
81320;SDS011;70785;52.570;5.638;2024-03-06T03:37:32;52.20;;;23.15;;
81320;SDS011;70785;52.570;5.638;2024-03-06T03:39:59;50.25;;;23.88;;
81320;SDS011;70785;52.570;5.638;2024-03-06T03:42:25;56.05;;;24.45;;
81320;SDS011;70785;52.570;5.638;2024-03-06T03:44:52;49.80;;;24.30;;
81320;SDS011;70785;52.570;5.638;2024-03-06T03:47:18;55.20;;;24.70;;
81320;SDS011;70785;52.570;5.638;2024-03-06T03:49:44;58.47;;;25.02;;
81320;SDS011;70785;52.570;5.638;2024-03-06T03:52:10;55.67;;;24.52;;
81320;SDS011;70785;52.570;5.638;2024-03-06T03:54:37;58.42;;;25.30;;
81320;SDS011;70785;52.570;5.638;2024-03-06T03:57:03;60.97;;;26.08;;
81320;SDS011;70785;52.570;5.638;2024-03-06T03:59:29;51.63;;;23.17;;
81320;SDS011;70785;52.570;5.638;2024-03-06T04:01:56;50.67;;;21.77;;
81320;SDS011;70785;52.570;5.638;2024-03-06T04:04:23;55.67;;;24.58;;
81320;SDS011;70785;52.570;5.638;2024-03-06T04:06:49;49.72;;;23.00;;
81320;SDS011;70785;52.570;5.638;2024-03-06T04:09:15;55.10;;;23.60;;
81320;SDS011;70785;52.570;5.638;2024-03-06T04:11:41;56.40;;;23.80;;
81320;SDS011;70785;52.570;5.638;2024-03-06T04:14:07;57.72;;;24.60;;
81320;SDS011;70785;52.570;5.638;2024-03-06T04:16:34;53.65;;;23.63;;
81320;SDS011;70785;52.570;5.638;2024-03-06T04:19:01;53.70;;;22.38;;
81320;SDS011;70785;52.570;5.638;2024-03-06T04:21:27;54.45;;;24.90;;
81320;SDS011;70785;52.570;5.638;2024-03-06T04:23:53;53.03;;;23.38;;
81320;SDS011;70785;52.570;5.638;2024-03-06T04:26:20;52.83;;;22.00;;
81320;SDS011;70785;52.570;5.638;2024-03-06T04:28:46;53.20;;;24.02;;
81320;SDS011;70785;52.570;5.638;2024-03-06T04:31:12;55.67;;;24.65;;
81320;SDS011;70785;52.570;5.638;2024-03-06T04:33:38;54.65;;;24.70;;
81320;SDS011;70785;52.570;5.638;2024-03-06T04:36:07;54.20;;;23.60;;
81320;SDS011;70785;52.570;5.638;2024-03-06T04:38:34;60.67;;;24.13;;
81320;SDS011;70785;52.570;5.638;2024-03-06T04:41:00;58.53;;;23.83;;
81320;SDS011;70785;52.570;5.638;2024-03-06T04:43:26;58.08;;;23.27;;
81320;SDS011;70785;52.570;5.638;2024-03-06T04:45:52;59.60;;;23.05;;
81320;SDS011;70785;52.570;5.638;2024-03-06T04:48:18;59.35;;;25.02;;
81320;SDS011;70785;52.570;5.638;2024-03-06T04:50:44;57.72;;;23.67;;
81320;SDS011;70785;52.570;5.638;2024-03-06T04:53:10;70.43;;;26.33;;
81320;SDS011;70785;52.570;5.638;2024-03-06T04:55:37;65.07;;;27.70;;
81320;SDS011;70785;52.570;5.638;2024-03-06T04:58:03;70.50;;;26.73;;
81320;SDS011;70785;52.570;5.638;2024-03-06T05:00:30;69.07;;;25.60;;
81320;SDS011;70785;52.570;5.638;2024-03-06T05:02:56;70.53;;;27.40;;
81320;SDS011;70785;52.570;5.638;2024-03-06T05:05:22;66.93;;;26.05;;
81320;SDS011;70785;52.570;5.638;2024-03-06T05:07:48;73.38;;;28.70;;
81320;SDS011;70785;52.570;5.638;2024-03-06T05:10:15;63.08;;;26.17;;
81320;SDS011;70785;52.570;5.638;2024-03-06T05:12:41;66.47;;;27.48;;
81320;SDS011;70785;52.570;5.638;2024-03-06T05:15:08;65.18;;;25.88;;
81320;SDS011;70785;52.570;5.638;2024-03-06T05:17:35;65.47;;;28.10;;
81320;SDS011;70785;52.570;5.638;2024-03-06T05:20:01;65.00;;;26.63;;
81320;SDS011;70785;52.570;5.638;2024-03-06T05:22:29;66.63;;;27.73;;
81320;SDS011;70785;52.570;5.638;2024-03-06T05:24:55;63.20;;;27.52;;
81320;SDS011;70785;52.570;5.638;2024-03-06T05:27:21;58.15;;;25.98;;
81320;SDS011;70785;52.570;5.638;2024-03-06T05:29:47;64.97;;;28.30;;
81320;SDS011;70785;52.570;5.638;2024-03-06T05:32:13;60.95;;;23.88;;
81320;SDS011;70785;52.570;5.638;2024-03-06T05:34:40;59.42;;;22.95;;
81320;SDS011;70785;52.570;5.638;2024-03-06T05:37:06;61.90;;;26.80;;
81320;SDS011;70785;52.570;5.638;2024-03-06T05:39:32;62.55;;;25.00;;
81320;SDS011;70785;52.570;5.638;2024-03-06T05:42:00;70.68;;;25.85;;
81320;SDS011;70785;52.570;5.638;2024-03-06T05:44:29;65.13;;;27.48;;
81320;SDS011;70785;52.570;5.638;2024-03-06T05:46:56;71.88;;;27.58;;
81320;SDS011;70785;52.570;5.638;2024-03-06T05:49:27;66.75;;;26.05;;
81320;SDS011;70785;52.570;5.638;2024-03-06T05:51:53;62.05;;;26.77;;
81320;SDS011;70785;52.570;5.638;2024-03-06T05:54:20;67.25;;;27.25;;
81320;SDS011;70785;52.570;5.638;2024-03-06T05:56:49;62.17;;;25.33;;
81320;SDS011;70785;52.570;5.638;2024-03-06T05:59:20;61.22;;;26.55;;
81320;SDS011;70785;52.570;5.638;2024-03-06T06:01:46;59.80;;;27.88;;
81320;SDS011;70785;52.570;5.638;2024-03-06T06:04:12;65.00;;;27.33;;
81320;SDS011;70785;52.570;5.638;2024-03-06T06:06:39;63.75;;;27.00;;
81320;SDS011;70785;52.570;5.638;2024-03-06T06:09:06;67.32;;;27.27;;
81320;SDS011;70785;52.570;5.638;2024-03-06T06:11:32;63.00;;;25.77;;
81320;SDS011;70785;52.570;5.638;2024-03-06T06:13:59;63.55;;;27.38;;
81320;SDS011;70785;52.570;5.638;2024-03-06T06:16:25;59.22;;;25.00;;
81320;SDS011;70785;52.570;5.638;2024-03-06T06:18:51;70.50;;;27.27;;
81320;SDS011;70785;52.570;5.638;2024-03-06T06:21:18;66.65;;;27.98;;
81320;SDS011;70785;52.570;5.638;2024-03-06T06:23:44;67.38;;;26.75;;
81320;SDS011;70785;52.570;5.638;2024-03-06T06:26:10;60.65;;;27.83;;
81320;SDS011;70785;52.570;5.638;2024-03-06T06:28:37;72.57;;;26.92;;
81320;SDS011;70785;52.570;5.638;2024-03-06T06:31:03;70.60;;;25.85;;
81320;SDS011;70785;52.570;5.638;2024-03-06T06:33:30;62.20;;;26.02;;
81320;SDS011;70785;52.570;5.638;2024-03-06T06:35:56;60.78;;;27.83;;
81320;SDS011;70785;52.570;5.638;2024-03-06T06:38:22;60.92;;;24.60;;
81320;SDS011;70785;52.570;5.638;2024-03-06T06:40:48;61.15;;;27.48;;
81320;SDS011;70785;52.570;5.638;2024-03-06T06:43:14;64.80;;;30.42;;
81320;SDS011;70785;52.570;5.638;2024-03-06T06:45:41;64.85;;;26.75;;
81320;SDS011;70785;52.570;5.638;2024-03-06T06:48:07;70.78;;;28.58;;
81320;SDS011;70785;52.570;5.638;2024-03-06T06:50:34;65.95;;;26.15;;
81320;SDS011;70785;52.570;5.638;2024-03-06T06:53:01;62.58;;;25.30;;
81320;SDS011;70785;52.570;5.638;2024-03-06T06:55:27;65.53;;;26.05;;
81320;SDS011;70785;52.570;5.638;2024-03-06T06:57:53;61.58;;;25.83;;
81320;SDS011;70785;52.570;5.638;2024-03-06T07:00:19;62.97;;;27.42;;
81320;SDS011;70785;52.570;5.638;2024-03-06T07:02:48;64.38;;;25.05;;
81320;SDS011;70785;52.570;5.638;2024-03-06T07:05:15;60.80;;;26.95;;
81320;SDS011;70785;52.570;5.638;2024-03-06T07:07:41;64.15;;;24.65;;
81320;SDS011;70785;52.570;5.638;2024-03-06T07:10:07;63.53;;;25.98;;
81320;SDS011;70785;52.570;5.638;2024-03-06T07:12:34;59.40;;;27.23;;
81320;SDS011;70785;52.570;5.638;2024-03-06T07:15:01;56.90;;;26.00;;
81320;SDS011;70785;52.570;5.638;2024-03-06T07:17:30;58.40;;;24.70;;
81320;SDS011;70785;52.570;5.638;2024-03-06T07:19:56;59.08;;;26.98;;
81320;SDS011;70785;52.570;5.638;2024-03-06T07:22:22;60.90;;;25.42;;
81320;SDS011;70785;52.570;5.638;2024-03-06T07:24:48;56.72;;;24.92;;
81320;SDS011;70785;52.570;5.638;2024-03-06T07:27:15;55.45;;;23.73;;
81320;SDS011;70785;52.570;5.638;2024-03-06T07:29:41;57.55;;;24.90;;
81320;SDS011;70785;52.570;5.638;2024-03-06T07:32:07;55.70;;;24.77;;
81320;SDS011;70785;52.570;5.638;2024-03-06T07:34:33;56.55;;;24.20;;
81320;SDS011;70785;52.570;5.638;2024-03-06T07:36:59;53.15;;;25.65;;
81320;SDS011;70785;52.570;5.638;2024-03-06T07:39:26;55.78;;;25.05;;
81320;SDS011;70785;52.570;5.638;2024-03-06T07:41:52;45.33;;;21.27;;
81320;SDS011;70785;52.570;5.638;2024-03-06T07:44:20;46.38;;;22.05;;
81320;SDS011;70785;52.570;5.638;2024-03-06T07:46:46;45.28;;;20.60;;
81320;SDS011;70785;52.570;5.638;2024-03-06T07:49:12;49.33;;;22.40;;
81320;SDS011;70785;52.570;5.638;2024-03-06T07:51:38;46.50;;;22.75;;
81320;SDS011;70785;52.570;5.638;2024-03-06T07:54:06;51.13;;;22.90;;
81320;SDS011;70785;52.570;5.638;2024-03-06T07:56:32;49.05;;;22.88;;
81320;SDS011;70785;52.570;5.638;2024-03-06T07:58:59;46.92;;;23.80;;
81320;SDS011;70785;52.570;5.638;2024-03-06T08:01:26;47.45;;;23.20;;
81320;SDS011;70785;52.570;5.638;2024-03-06T08:03:54;54.55;;;23.63;;
81320;SDS011;70785;52.570;5.638;2024-03-06T08:06:20;48.65;;;22.50;;
81320;SDS011;70785;52.570;5.638;2024-03-06T08:08:46;47.90;;;22.10;;
81320;SDS011;70785;52.570;5.638;2024-03-06T08:11:13;47.70;;;22.08;;
81320;SDS011;70785;52.570;5.638;2024-03-06T08:13:39;46.05;;;22.98;;
81320;SDS011;70785;52.570;5.638;2024-03-06T08:16:06;42.28;;;22.33;;
81320;SDS011;70785;52.570;5.638;2024-03-06T08:18:33;39.83;;;16.98;;
81320;SDS011;70785;52.570;5.638;2024-03-06T08:21:00;43.00;;;18.67;;
81320;SDS011;70785;52.570;5.638;2024-03-06T08:23:27;36.53;;;17.90;;
81320;SDS011;70785;52.570;5.638;2024-03-06T08:25:53;42.78;;;20.55;;
81320;SDS011;70785;52.570;5.638;2024-03-06T08:28:21;35.38;;;17.20;;
81320;SDS011;70785;52.570;5.638;2024-03-06T08:30:47;39.92;;;20.23;;
81320;SDS011;70785;52.570;5.638;2024-03-06T08:33:13;34.80;;;19.30;;
81320;SDS011;70785;52.570;5.638;2024-03-06T08:35:39;37.28;;;18.02;;
81320;SDS011;70785;52.570;5.638;2024-03-06T08:38:06;39.13;;;19.20;;
81320;SDS011;70785;52.570;5.638;2024-03-06T08:40:32;35.15;;;17.17;;
81320;SDS011;70785;52.570;5.638;2024-03-06T08:42:59;32.42;;;17.05;;
81320;SDS011;70785;52.570;5.638;2024-03-06T08:45:25;32.47;;;16.50;;
81320;SDS011;70785;52.570;5.638;2024-03-06T08:47:51;35.13;;;17.83;;
81320;SDS011;70785;52.570;5.638;2024-03-06T08:50:20;32.70;;;17.50;;
81320;SDS011;70785;52.570;5.638;2024-03-06T08:52:46;31.85;;;15.63;;
81320;SDS011;70785;52.570;5.638;2024-03-06T08:55:12;30.55;;;16.25;;
81320;SDS011;70785;52.570;5.638;2024-03-06T08:57:39;33.85;;;16.02;;
81320;SDS011;70785;52.570;5.638;2024-03-06T09:00:05;30.48;;;15.45;;
81320;SDS011;70785;52.570;5.638;2024-03-06T09:02:39;31.60;;;15.38;;
81320;SDS011;70785;52.570;5.638;2024-03-06T09:05:09;28.55;;;14.65;;
81320;SDS011;70785;52.570;5.638;2024-03-06T09:07:36;32.10;;;15.93;;
81320;SDS011;70785;52.570;5.638;2024-03-06T09:10:08;29.98;;;16.73;;
81320;SDS011;70785;52.570;5.638;2024-03-06T09:12:36;29.80;;;14.80;;
81320;SDS011;70785;52.570;5.638;2024-03-06T09:15:02;23.15;;;14.30;;
81320;SDS011;70785;52.570;5.638;2024-03-06T09:17:29;27.27;;;14.13;;
81320;SDS011;70785;52.570;5.638;2024-03-06T09:19:56;24.15;;;14.48;;
81320;SDS011;70785;52.570;5.638;2024-03-06T09:22:22;22.25;;;12.70;;
81320;SDS011;70785;52.570;5.638;2024-03-06T09:24:48;26.83;;;13.68;;
81320;SDS011;70785;52.570;5.638;2024-03-06T09:27:15;25.38;;;12.45;;
81320;SDS011;70785;52.570;5.638;2024-03-06T09:29:42;24.17;;;11.77;;
81320;SDS011;70785;52.570;5.638;2024-03-06T09:32:08;24.42;;;12.60;;
81320;SDS011;70785;52.570;5.638;2024-03-06T09:34:34;25.10;;;12.90;;
81320;SDS011;70785;52.570;5.638;2024-03-06T09:37:01;21.83;;;12.07;;
81320;SDS011;70785;52.570;5.638;2024-03-06T09:39:29;23.98;;;13.65;;
81320;SDS011;70785;52.570;5.638;2024-03-06T09:41:55;23.95;;;12.65;;
81320;SDS011;70785;52.570;5.638;2024-03-06T09:44:22;26.05;;;14.18;;
81320;SDS011;70785;52.570;5.638;2024-03-06T09:46:49;28.73;;;16.23;;
81320;SDS011;70785;52.570;5.638;2024-03-06T09:49:16;28.08;;;13.60;;
81320;SDS011;70785;52.570;5.638;2024-03-06T09:51:46;30.95;;;14.43;;
81320;SDS011;70785;52.570;5.638;2024-03-06T09:54:15;30.10;;;13.73;;
81320;SDS011;70785;52.570;5.638;2024-03-06T09:56:52;27.13;;;14.48;;
81320;SDS011;70785;52.570;5.638;2024-03-06T09:59:20;27.33;;;13.35;;
81320;SDS011;70785;52.570;5.638;2024-03-06T10:01:50;27.33;;;13.55;;
81320;SDS011;70785;52.570;5.638;2024-03-06T10:04:20;26.77;;;14.35;;
81320;SDS011;70785;52.570;5.638;2024-03-06T10:06:47;25.75;;;14.05;;
81320;SDS011;70785;52.570;5.638;2024-03-06T10:09:18;26.08;;;14.15;;
81320;SDS011;70785;52.570;5.638;2024-03-06T10:11:44;26.80;;;13.50;;
81320;SDS011;70785;52.570;5.638;2024-03-06T10:14:11;24.80;;;13.18;;
81320;SDS011;70785;52.570;5.638;2024-03-06T10:16:37;26.60;;;15.25;;
81320;SDS011;70785;52.570;5.638;2024-03-06T10:19:19;24.17;;;14.23;;
81320;SDS011;70785;52.570;5.638;2024-03-06T10:21:49;29.25;;;11.70;;
81320;SDS011;70785;52.570;5.638;2024-03-06T10:24:28;25.95;;;14.02;;
81320;SDS011;70785;52.570;5.638;2024-03-06T10:26:56;28.80;;;14.65;;
81320;SDS011;70785;52.570;5.638;2024-03-06T10:29:25;26.80;;;13.98;;
81320;SDS011;70785;52.570;5.638;2024-03-06T10:31:53;29.55;;;15.13;;
81320;SDS011;70785;52.570;5.638;2024-03-06T10:34:20;26.63;;;13.70;;
81320;SDS011;70785;52.570;5.638;2024-03-06T10:36:54;27.17;;;14.40;;
81320;SDS011;70785;52.570;5.638;2024-03-06T10:39:21;25.27;;;13.13;;
81320;SDS011;70785;52.570;5.638;2024-03-06T10:41:52;28.23;;;13.27;;
81320;SDS011;70785;52.570;5.638;2024-03-06T10:44:20;27.83;;;13.52;;
81320;SDS011;70785;52.570;5.638;2024-03-06T10:46:51;28.13;;;13.77;;
81320;SDS011;70785;52.570;5.638;2024-03-06T10:49:24;25.88;;;13.73;;
81320;SDS011;70785;52.570;5.638;2024-03-06T10:51:59;25.25;;;14.15;;
81320;SDS011;70785;52.570;5.638;2024-03-06T10:54:27;29.10;;;15.10;;
81320;SDS011;70785;52.570;5.638;2024-03-06T10:56:57;28.92;;;15.23;;
81320;SDS011;70785;52.570;5.638;2024-03-06T10:59:25;26.15;;;12.63;;
81320;SDS011;70785;52.570;5.638;2024-03-06T11:01:58;27.00;;;13.75;;
81320;SDS011;70785;52.570;5.638;2024-03-06T11:04:28;28.90;;;14.25;;
81320;SDS011;70785;52.570;5.638;2024-03-06T11:06:59;27.85;;;14.02;;
81320;SDS011;70785;52.570;5.638;2024-03-06T11:09:28;23.33;;;12.95;;
81320;SDS011;70785;52.570;5.638;2024-03-06T11:11:57;26.48;;;13.93;;
81320;SDS011;70785;52.570;5.638;2024-03-06T11:14:24;28.98;;;13.45;;
81320;SDS011;70785;52.570;5.638;2024-03-06T11:17:06;23.80;;;12.30;;
81320;SDS011;70785;52.570;5.638;2024-03-06T11:20:21;23.58;;;12.93;;
81320;SDS011;70785;52.570;5.638;2024-03-06T11:25:36;23.77;;;12.60;;
81320;SDS011;70785;52.570;5.638;2024-03-06T11:28:16;24.77;;;13.65;;
81320;SDS011;70785;52.570;5.638;2024-03-06T11:30:56;25.00;;;14.07;;
81320;SDS011;70785;52.570;5.638;2024-03-06T11:36:15;22.38;;;12.85;;
81320;SDS011;70785;52.570;5.638;2024-03-06T11:38:58;24.30;;;12.32;;
81320;SDS011;70785;52.570;5.638;2024-03-06T11:43:56;25.13;;;13.55;;
81320;SDS011;70785;52.570;5.638;2024-03-06T11:49:19;25.40;;;11.85;;
81320;SDS011;70785;52.570;5.638;2024-03-06T11:51:46;25.38;;;12.68;;
81320;SDS011;70785;52.570;5.638;2024-03-06T11:54:14;27.67;;;13.52;;
81320;SDS011;70785;52.570;5.638;2024-03-06T11:56:40;25.33;;;12.93;;
81320;SDS011;70785;52.570;5.638;2024-03-06T11:59:07;26.73;;;14.27;;
81320;SDS011;70785;52.570;5.638;2024-03-06T12:01:33;24.17;;;13.43;;
81320;SDS011;70785;52.570;5.638;2024-03-06T12:04:00;23.45;;;13.00;;
81320;SDS011;70785;52.570;5.638;2024-03-06T12:06:27;26.15;;;14.75;;
81320;SDS011;70785;52.570;5.638;2024-03-06T12:08:54;25.15;;;12.95;;
81320;SDS011;70785;52.570;5.638;2024-03-06T12:11:20;26.38;;;12.88;;
81320;SDS011;70785;52.570;5.638;2024-03-06T12:13:48;25.75;;;14.45;;
81320;SDS011;70785;52.570;5.638;2024-03-06T12:16:14;28.02;;;15.57;;
81320;SDS011;70785;52.570;5.638;2024-03-06T12:18:41;24.90;;;13.25;;
81320;SDS011;70785;52.570;5.638;2024-03-06T12:21:07;24.98;;;13.38;;
81320;SDS011;70785;52.570;5.638;2024-03-06T12:23:33;21.88;;;12.05;;
81320;SDS011;70785;52.570;5.638;2024-03-06T12:26:06;22.10;;;10.88;;
81320;SDS011;70785;52.570;5.638;2024-03-06T12:31:03;24.95;;;12.07;;
81320;SDS011;70785;52.570;5.638;2024-03-06T12:33:30;25.80;;;12.63;;
81320;SDS011;70785;52.570;5.638;2024-03-06T12:36:06;31.70;;;15.15;;
81320;SDS011;70785;52.570;5.638;2024-03-06T12:38:36;24.38;;;13.85;;
81320;SDS011;70785;52.570;5.638;2024-03-06T12:41:03;24.42;;;13.18;;
81320;SDS011;70785;52.570;5.638;2024-03-06T12:43:30;27.58;;;13.75;;
81320;SDS011;70785;52.570;5.638;2024-03-06T12:45:56;30.60;;;15.98;;
81320;SDS011;70785;52.570;5.638;2024-03-06T12:48:23;31.20;;;15.30;;
81320;SDS011;70785;52.570;5.638;2024-03-06T12:50:51;29.05;;;15.43;;
81320;SDS011;70785;52.570;5.638;2024-03-06T12:53:20;28.65;;;15.00;;
81320;SDS011;70785;52.570;5.638;2024-03-06T12:55:46;29.45;;;13.73;;
81320;SDS011;70785;52.570;5.638;2024-03-06T12:58:13;29.35;;;14.65;;
81320;SDS011;70785;52.570;5.638;2024-03-06T13:00:40;28.55;;;13.50;;
81320;SDS011;70785;52.570;5.638;2024-03-06T13:03:06;26.05;;;13.82;;
81320;SDS011;70785;52.570;5.638;2024-03-06T13:05:35;25.73;;;15.13;;
81320;SDS011;70785;52.570;5.638;2024-03-06T13:08:01;26.65;;;13.20;;
81320;SDS011;70785;52.570;5.638;2024-03-06T13:10:28;27.85;;;14.13;;
81320;SDS011;70785;52.570;5.638;2024-03-06T13:12:54;28.50;;;15.25;;
81320;SDS011;70785;52.570;5.638;2024-03-06T13:15:20;25.00;;;14.73;;
81320;SDS011;70785;52.570;5.638;2024-03-06T13:17:46;29.52;;;14.48;;
81320;SDS011;70785;52.570;5.638;2024-03-06T13:20:13;25.52;;;14.35;;
81320;SDS011;70785;52.570;5.638;2024-03-06T13:22:39;30.25;;;16.17;;
81320;SDS011;70785;52.570;5.638;2024-03-06T13:25:06;30.65;;;15.30;;
81320;SDS011;70785;52.570;5.638;2024-03-06T13:27:32;24.95;;;13.20;;
81320;SDS011;70785;52.570;5.638;2024-03-06T13:29:58;29.10;;;13.20;;
81320;SDS011;70785;52.570;5.638;2024-03-06T13:32:24;25.40;;;12.63;;
81320;SDS011;70785;52.570;5.638;2024-03-06T13:34:50;28.70;;;14.50;;
81320;SDS011;70785;52.570;5.638;2024-03-06T13:37:16;26.27;;;13.35;;
81320;SDS011;70785;52.570;5.638;2024-03-06T13:39:43;24.58;;;15.43;;
81320;SDS011;70785;52.570;5.638;2024-03-06T13:42:09;28.67;;;13.63;;
81320;SDS011;70785;52.570;5.638;2024-03-06T13:44:35;26.55;;;13.18;;
81320;SDS011;70785;52.570;5.638;2024-03-06T13:47:02;26.98;;;15.48;;
81320;SDS011;70785;52.570;5.638;2024-03-06T13:52:05;27.40;;;14.45;;
81320;SDS011;70785;52.570;5.638;2024-03-06T13:54:33;26.80;;;13.35;;
81320;SDS011;70785;52.570;5.638;2024-03-06T13:57:00;25.80;;;13.75;;
81320;SDS011;70785;52.570;5.638;2024-03-06T13:59:30;28.15;;;14.95;;
81320;SDS011;70785;52.570;5.638;2024-03-06T14:01:57;25.00;;;12.88;;
81320;SDS011;70785;52.570;5.638;2024-03-06T14:04:24;26.60;;;13.38;;
81320;SDS011;70785;52.570;5.638;2024-03-06T14:06:51;23.42;;;12.48;;
81320;SDS011;70785;52.570;5.638;2024-03-06T14:09:17;24.40;;;12.45;;
81320;SDS011;70785;52.570;5.638;2024-03-06T14:11:44;27.23;;;13.68;;
81320;SDS011;70785;52.570;5.638;2024-03-06T14:14:10;23.98;;;14.40;;
81320;SDS011;70785;52.570;5.638;2024-03-06T14:16:39;23.17;;;12.50;;
81320;SDS011;70785;52.570;5.638;2024-03-06T14:19:06;20.35;;;11.82;;
81320;SDS011;70785;52.570;5.638;2024-03-06T14:21:32;21.25;;;12.10;;
81320;SDS011;70785;52.570;5.638;2024-03-06T14:23:59;15.73;;;10.10;;
81320;SDS011;70785;52.570;5.638;2024-03-06T14:26:25;20.55;;;10.65;;
81320;SDS011;70785;52.570;5.638;2024-03-06T14:28:53;20.05;;;11.15;;
81320;SDS011;70785;52.570;5.638;2024-03-06T14:31:19;14.75;;;9.88;;
81320;SDS011;70785;52.570;5.638;2024-03-06T14:33:45;18.88;;;10.52;;
81320;SDS011;70785;52.570;5.638;2024-03-06T14:36:12;16.25;;;10.30;;
81320;SDS011;70785;52.570;5.638;2024-03-06T14:38:38;15.85;;;9.70;;